createdAt,value
2022-12-13T00:01:23.950Z,14.18
2022-12-13T00:03:53.722Z,14.50
2022-12-13T00:06:20.468Z,14.30
2022-12-13T00:08:47.215Z,14.23
2022-12-13T00:11:14.470Z,15.50
2022-12-13T00:13:42.489Z,14.68
2022-12-13T00:16:15.116Z,15.63
2022-12-13T00:18:42.092Z,14.38
2022-12-13T00:21:12.128Z,15.23
2022-12-13T00:23:39.019Z,13.90
2022-12-13T00:26:07.558Z,15.32
2022-12-13T00:28:34.266Z,14.98
2022-12-13T00:31:26.090Z,14.82
2022-12-13T00:33:49.478Z,13.90
2022-12-13T00:36:16.729Z,14.73
2022-12-13T00:38:43.371Z,15.77
2022-12-13T00:41:34.664Z,14.65
2022-12-13T00:44:02.470Z,14.80
2022-12-13T00:46:29.638Z,15.05
2022-12-13T00:48:58.355Z,14.77
2022-12-13T00:51:25.981Z,14.90
2022-12-13T00:53:52.811Z,15.30
2022-12-13T00:56:21.979Z,15.45
2022-12-13T00:58:52.069Z,14.25
2022-12-13T01:01:21.530Z,16.10
2022-12-13T01:03:49.421Z,14.65
2022-12-13T01:06:22.617Z,15.82
2022-12-13T01:08:49.575Z,14.30
2022-12-13T01:11:16.544Z,14.75
2022-12-13T01:13:43.211Z,15.27
2022-12-13T01:16:11.305Z,15.07
2022-12-13T01:18:38.823Z,15.50
2022-12-13T01:21:12.158Z,14.30
2022-12-13T01:23:39.375Z,13.88
2022-12-13T01:26:07.811Z,14.73
2022-12-13T01:28:34.529Z,14.45
2022-12-13T01:31:04.808Z,14.20
2022-12-13T01:33:32.284Z,14.55
2022-12-13T01:36:06.645Z,14.65
2022-12-13T01:38:37.692Z,14.55
2022-12-13T01:41:16.967Z,13.85
2022-12-13T01:43:44.984Z,15.63
2022-12-13T01:46:13.110Z,14.05
2022-12-13T01:48:46.147Z,14.32
2022-12-13T01:51:15.387Z,14.13
2022-12-13T01:53:43.980Z,13.50
2022-12-13T01:56:15.293Z,13.93
2022-12-13T01:58:42.251Z,14.43
2022-12-13T02:01:09.225Z,14.82
2022-12-13T02:03:36.138Z,13.75
2022-12-13T02:06:06.888Z,14.90
2022-12-13T02:08:36.017Z,15.57
2022-12-13T02:11:04.139Z,13.75
2022-12-13T02:13:30.844Z,14.43
2022-12-13T02:16:22.317Z,14.73
2022-12-13T02:18:58.119Z,14.55
2022-12-13T02:21:36.108Z,13.70
2022-12-13T02:24:27.616Z,13.82
2022-12-13T02:27:10.776Z,13.70
2022-12-13T02:30:06.374Z,13.27
2022-12-13T02:32:54.332Z,13.32
2022-12-13T02:35:22.907Z,13.82
2022-12-13T02:38:10.788Z,14.00
2022-12-13T02:40:45.921Z,13.38
2022-12-13T02:43:33.833Z,14.35
2022-12-13T02:46:01.889Z,13.73
2022-12-13T02:48:36.317Z,13.43
2022-12-13T02:51:04.260Z,13.75
2022-12-13T02:53:33.874Z,13.35
2022-12-13T02:56:00.811Z,13.95
2022-12-13T02:58:31.457Z,13.75
2022-12-13T03:01:28.847Z,13.13
2022-12-13T03:04:02.341Z,12.90
2022-12-13T03:07:01.228Z,11.55
2022-12-13T03:09:41.128Z,12.73
2022-12-13T03:12:48.726Z,13.75
2022-12-13T03:15:24.269Z,13.35
2022-12-13T03:17:55.906Z,12.88
2022-12-13T03:20:25.642Z,13.90
2022-12-13T03:22:52.809Z,13.15
2022-12-13T03:25:31.907Z,13.32
2022-12-13T03:28:01.330Z,13.52
2022-12-13T03:30:30.831Z,13.55
2022-12-13T03:32:57.520Z,12.63
2022-12-13T03:35:25.218Z,14.32
2022-12-13T03:38:02.328Z,12.45
2022-12-13T03:40:29.868Z,12.95
2022-12-13T03:42:56.711Z,13.15
2022-12-13T03:45:23.480Z,13.13
2022-12-13T03:47:50.193Z,12.77
2022-12-13T03:50:26.896Z,13.40
2022-12-13T03:53:01.697Z,12.23
2022-12-13T03:55:28.874Z,13.35
2022-12-13T03:57:55.836Z,12.23
2022-12-13T04:00:22.677Z,11.63
2022-12-13T04:02:49.404Z,11.30
2022-12-13T04:05:16.438Z,11.68
2022-12-13T04:07:47.907Z,11.23
2022-12-13T04:10:26.414Z,11.80
2022-12-13T04:13:12.557Z,12.65
2022-12-13T04:15:39.488Z,12.68
2022-12-13T04:18:06.260Z,11.80
2022-12-13T04:20:32.945Z,12.23
2022-12-13T04:22:59.606Z,11.57
2022-12-13T04:25:26.669Z,11.90
2022-12-13T04:27:53.356Z,11.90
2022-12-13T04:30:20.038Z,11.88
2022-12-13T04:32:46.787Z,11.55
2022-12-13T04:35:13.599Z,11.30
2022-12-13T04:37:40.435Z,11.65
2022-12-13T04:40:11.054Z,12.05
2022-12-13T04:42:38.183Z,11.32
2022-12-13T04:45:05.512Z,11.32
2022-12-13T04:47:32.253Z,11.88
2022-12-13T04:49:59.057Z,13.02
2022-12-13T04:52:25.719Z,11.40
2022-12-13T04:54:55.324Z,11.90
2022-12-13T04:57:23.438Z,11.02
2022-12-13T04:59:50.076Z,10.70
2022-12-13T05:02:23.401Z,10.70
2022-12-13T05:04:53.564Z,11.77
2022-12-13T05:07:23.059Z,10.93
2022-12-13T05:09:49.824Z,11.40
2022-12-13T05:12:22.352Z,11.68
2022-12-13T05:14:50.780Z,11.73
2022-12-13T05:17:17.702Z,10.70
2022-12-13T05:19:44.765Z,11.35
2022-12-13T05:22:21.396Z,11.00
2022-12-13T05:24:48.804Z,11.18
2022-12-13T05:27:24.859Z,11.00
2022-12-13T05:30:04.170Z,10.98
2022-12-13T05:32:43.895Z,11.00
2022-12-13T05:35:23.195Z,11.10
2022-12-13T05:37:55.104Z,11.13
2022-12-13T05:40:23.307Z,10.80
2022-12-13T05:42:50.141Z,11.55
2022-12-13T05:45:18.553Z,10.90
2022-12-13T05:47:45.551Z,13.73
2022-12-13T05:50:13.150Z,12.77
2022-12-13T05:52:43.843Z,12.95
2022-12-13T05:55:11.813Z,11.52
2022-12-13T05:57:38.827Z,12.85
2022-12-13T06:00:30.092Z,12.98
2022-12-13T06:02:55.476Z,13.50
2022-12-13T06:05:22.690Z,12.82
2022-12-13T06:07:53.642Z,13.82
2022-12-13T06:10:23.615Z,13.00
2022-12-13T06:12:50.343Z,14.13
2022-12-13T06:15:22.664Z,13.68
2022-12-13T06:17:49.711Z,13.38
2022-12-13T06:20:22.978Z,12.05
2022-12-13T06:22:54.229Z,13.30
2022-12-13T06:25:31.413Z,13.68
2022-12-13T06:28:01.488Z,12.93
2022-12-13T06:30:31.766Z,13.32
2022-12-13T06:32:58.569Z,13.32
2022-12-13T06:35:27.936Z,13.65
2022-12-13T06:38:11.707Z,12.23
2022-12-13T06:40:42.585Z,13.80
2022-12-13T06:43:10.247Z,12.57
2022-12-13T06:45:40.571Z,14.77
2022-12-13T06:48:07.322Z,13.10
2022-12-13T06:50:34.330Z,12.75
2022-12-13T06:53:01.091Z,13.50
2022-12-13T06:55:27.915Z,14.68
2022-12-13T06:57:54.631Z,13.68
2022-12-13T07:00:21.623Z,14.23
2022-12-13T07:02:55.209Z,13.48
2022-12-13T07:05:22.469Z,13.25
2022-12-13T07:07:49.278Z,14.32
2022-12-13T07:10:22.368Z,12.95
2022-12-13T07:12:50.101Z,12.90
2022-12-13T07:15:17.119Z,13.40
2022-12-13T07:17:43.979Z,13.45
2022-12-13T07:20:13.685Z,13.60
2022-12-13T07:22:47.136Z,14.05
2022-12-13T07:25:27.636Z,13.25
2022-12-13T07:28:06.144Z,12.68
2022-12-13T07:30:41.189Z,13.65
2022-12-13T07:33:08.300Z,13.90
2022-12-13T07:35:36.842Z,13.98
2022-12-13T07:38:09.749Z,14.43
2022-12-13T07:40:38.400Z,12.68
2022-12-13T07:43:05.676Z,13.25
2022-12-13T07:45:32.932Z,13.10
2022-12-13T07:48:04.409Z,13.13
2022-12-13T07:50:37.413Z,13.38
2022-12-13T07:53:08.525Z,12.82
2022-12-13T07:55:35.788Z,12.90
2022-12-13T07:58:04.753Z,13.63
2022-12-13T08:00:33.027Z,12.52
2022-12-13T08:03:01.709Z,12.65
2022-12-13T08:05:29.010Z,13.43
2022-12-13T08:08:07.315Z,12.60
2022-12-13T08:10:34.111Z,12.23
2022-12-13T08:13:04.686Z,12.30
2022-12-13T08:15:32.519Z,13.25
2022-12-13T08:18:02.053Z,12.30
2022-12-13T08:20:29.100Z,13.10
2022-12-13T08:23:02.011Z,11.80
2022-12-13T08:25:29.710Z,12.05
2022-12-13T08:28:02.143Z,12.63
2022-12-13T08:30:30.254Z,12.10
2022-12-13T08:32:57.836Z,12.93
2022-12-13T08:35:33.745Z,11.98
2022-12-13T08:38:01.189Z,11.82
2022-12-13T08:40:28.066Z,12.48
2022-12-13T08:42:55.855Z,13.55
2022-12-13T08:45:24.330Z,11.82
2022-12-13T08:47:51.351Z,12.27
2022-12-13T08:50:18.134Z,11.90
2022-12-13T08:52:45.377Z,11.82
2022-12-13T08:55:13.896Z,13.07
2022-12-13T08:57:41.696Z,11.77
2022-12-13T09:00:11.689Z,12.15
2022-12-13T09:02:39.166Z,13.10
2022-12-13T09:05:07.641Z,11.65
2022-12-13T09:07:36.448Z,12.07
2022-12-13T09:10:25.357Z,11.77
2022-12-13T09:12:52.027Z,11.82
2022-12-13T09:15:29.075Z,11.63
2022-12-13T09:18:04.294Z,11.38
2022-12-13T09:20:32.085Z,11.45
2022-12-13T09:23:08.125Z,12.85
2022-12-13T09:25:41.263Z,12.85
2022-12-13T09:28:09.674Z,12.13
2022-12-13T09:30:37.867Z,11.85
2022-12-13T09:33:18.260Z,12.32
2022-12-13T09:35:52.377Z,12.27
2022-12-13T09:38:19.422Z,12.15
2022-12-13T09:40:48.508Z,11.85
2022-12-13T09:43:32.104Z,10.70
2022-12-13T09:46:04.532Z,10.63
2022-12-13T09:48:40.659Z,10.68
2022-12-13T09:51:28.467Z,10.32
2022-12-13T09:53:58.366Z,11.30
2022-12-13T09:56:25.198Z,9.70
2022-12-13T09:58:53.600Z,10.50
2022-12-13T10:01:22.648Z,10.32
2022-12-13T10:03:52.414Z,10.10
2022-12-13T10:06:23.242Z,10.27
2022-12-13T10:08:57.285Z,10.10
2022-12-13T10:11:31.825Z,9.88
2022-12-13T10:14:07.136Z,9.73
2022-12-13T10:16:37.363Z,10.48
2022-12-13T10:19:28.966Z,10.85
2022-12-13T10:22:01.877Z,9.95
2022-12-13T10:24:55.896Z,10.45
2022-12-13T10:27:43.805Z,9.75
2022-12-13T10:30:13.836Z,10.45
2022-12-13T10:32:50.208Z,10.25
2022-12-13T10:35:35.279Z,10.50
2022-12-13T10:38:31.486Z,9.82
2022-12-13T10:40:58.862Z,9.75
2022-12-13T10:43:28.425Z,10.15
2022-12-13T10:46:01.401Z,9.20
2022-12-13T10:48:38.867Z,10.27
2022-12-13T10:51:14.171Z,10.85
2022-12-13T10:53:55.752Z,10.73
2022-12-13T10:56:24.017Z,10.45
2022-12-13T10:59:15.155Z,10.48
2022-12-13T11:01:44.486Z,10.65
2022-12-13T11:04:36.079Z,10.73
2022-12-13T11:07:31.935Z,9.80
2022-12-13T11:10:16.717Z,10.93
2022-12-13T11:12:45.035Z,10.85
2022-12-13T11:15:23.187Z,9.50
2022-12-13T11:17:53.148Z,9.43
2022-12-13T11:20:22.985Z,9.80
2022-12-13T11:22:50.430Z,9.85
2022-12-13T11:25:23.083Z,9.43
2022-12-13T11:28:45.555Z,9.68
2022-12-13T11:31:44.476Z,9.02
2022-12-13T11:34:39.293Z,9.05
2022-12-13T11:37:26.439Z,9.38
2022-12-13T11:40:01.605Z,8.85
2022-12-13T11:43:21.723Z,8.68
2022-12-13T11:45:54.497Z,8.52
2022-12-13T11:48:32.331Z,9.02
2022-12-13T11:51:01.003Z,9.13
2022-12-13T11:53:31.848Z,8.48
2022-12-13T11:56:21.459Z,8.50
2022-12-13T11:59:03.094Z,8.20
2022-12-13T12:01:38.398Z,9.55
2022-12-13T12:04:17.796Z,8.27
2022-12-13T12:06:51.915Z,9.00
2022-12-13T12:09:21.259Z,8.20
2022-12-13T12:12:00.877Z,9.32
2022-12-13T12:14:52.738Z,8.60
2022-12-13T12:17:23.643Z,8.40
2022-12-13T12:19:53.175Z,8.82
2022-12-13T12:22:39.192Z,9.20
2022-12-13T12:25:25.125Z,10.48
2022-12-13T12:28:25.598Z,9.40
2022-12-13T12:31:19.198Z,8.82
2022-12-13T12:34:05.757Z,9.63
2022-12-13T12:36:38.561Z,9.15
2022-12-13T12:40:03.748Z,9.15
2022-12-13T12:43:14.244Z,9.23
2022-12-13T12:46:02.906Z,9.30
2022-12-13T12:49:02.411Z,9.75
2022-12-13T12:51:53.685Z,9.05
2022-12-13T12:54:32.459Z,9.02
2022-12-13T12:57:12.374Z,8.68
2022-12-13T13:00:01.192Z,8.65
2022-12-13T13:03:01.380Z,7.97
2022-12-13T13:05:43.049Z,8.55
2022-12-13T13:08:14.416Z,9.18
2022-12-13T13:10:42.420Z,10.02
2022-12-13T13:13:46.519Z,9.02
2022-12-13T13:16:42.865Z,8.38
2022-12-13T13:19:12.441Z,9.60
2022-12-13T13:21:44.183Z,9.18
2022-12-13T13:24:14.806Z,9.15
2022-12-13T13:26:44.296Z,9.45
2022-12-13T13:29:43.386Z,8.43
2022-12-13T13:32:27.943Z,8.07
2022-12-13T13:35:29.010Z,8.88
2022-12-13T13:37:57.335Z,9.50
2022-12-13T13:40:31.979Z,8.55
2022-12-13T13:43:11.042Z,8.05
2022-12-13T13:45:50.194Z,8.38
2022-12-13T13:48:27.255Z,7.28
2022-12-13T13:51:28.859Z,7.72
2022-12-13T13:54:23.926Z,8.48
2022-12-13T13:57:38.498Z,7.63
2022-12-13T14:00:15.658Z,8.02
2022-12-13T14:03:01.471Z,8.70
2022-12-13T14:05:51.794Z,8.30
2022-12-13T14:08:40.704Z,8.90
2022-12-13T14:11:18.285Z,8.10
2022-12-13T14:14:22.929Z,10.68
2022-12-13T14:17:14.859Z,9.75
2022-12-13T14:20:03.471Z,9.38
2022-12-13T14:22:37.737Z,8.95
2022-12-13T14:25:31.757Z,9.55
2022-12-13T14:28:19.392Z,9.38
2022-12-13T14:30:47.956Z,9.88
2022-12-13T14:33:25.519Z,8.90
2022-12-13T14:35:55.008Z,9.45
2022-12-13T14:38:30.949Z,9.50
2022-12-13T14:41:02.500Z,9.35
2022-12-13T14:43:31.306Z,9.30
2022-12-13T14:46:00.188Z,10.13
2022-12-13T14:48:27.868Z,9.60
2022-12-13T14:50:55.809Z,10.02
2022-12-13T14:53:25.491Z,9.75
2022-12-13T14:56:28.661Z,10.05
2022-12-13T14:59:01.206Z,10.05
2022-12-13T15:01:31.394Z,10.02
2022-12-13T15:04:26.163Z,11.02
2022-12-13T15:07:00.075Z,10.98
2022-12-13T15:09:29.083Z,11.00
2022-12-13T15:12:02.881Z,12.13
2022-12-13T15:14:43.929Z,11.73
2022-12-13T15:17:25.968Z,12.20
2022-12-13T15:19:54.511Z,11.02
2022-12-13T15:22:43.090Z,10.82
2022-12-13T15:25:13.656Z,12.30
2022-12-13T15:27:48.392Z,11.70
2022-12-13T15:30:15.462Z,12.57
2022-12-13T15:33:19.902Z,12.25
2022-12-13T15:35:48.673Z,12.95
2022-12-13T15:38:28.688Z,13.00
2022-12-13T15:40:56.461Z,12.85
2022-12-13T15:43:35.547Z,13.10
2022-12-13T15:46:02.667Z,13.90
2022-12-13T15:48:33.376Z,12.75
2022-12-13T15:51:11.367Z,12.93
2022-12-13T15:53:39.360Z,13.60
2022-12-13T15:56:30.150Z,14.75
2022-12-13T15:58:57.560Z,13.45
2022-12-13T16:01:32.777Z,15.18
2022-12-13T16:03:59.990Z,15.15
2022-12-13T16:06:28.081Z,13.85
2022-12-13T16:08:57.197Z,14.02
2022-12-13T16:11:33.759Z,15.45
2022-12-13T16:14:49.370Z,14.32
2022-12-13T16:17:25.203Z,15.40
2022-12-13T16:19:53.804Z,17.25
2022-12-13T16:22:23.800Z,16.33
2022-12-13T16:24:53.373Z,15.27
2022-12-13T16:27:20.095Z,15.77
2022-12-13T16:29:46.821Z,14.80
2022-12-13T16:32:13.512Z,15.57
2022-12-13T16:34:40.292Z,14.27
2022-12-13T16:37:25.434Z,13.88
2022-12-13T16:39:54.149Z,13.60
2022-12-13T16:42:20.881Z,14.93
2022-12-13T16:45:05.826Z,15.18
2022-12-13T16:47:46.383Z,14.80
2022-12-13T16:50:17.057Z,15.57
2022-12-13T16:52:44.349Z,14.55
2022-12-13T16:55:12.637Z,14.57
2022-12-13T16:57:40.098Z,14.45
2022-12-13T17:00:10.140Z,14.00
2022-12-13T17:02:38.037Z,14.68
2022-12-13T17:05:05.652Z,15.15
2022-12-13T17:07:35.750Z,16.40
2022-12-13T17:10:02.641Z,14.73
2022-12-13T17:12:29.778Z,16.45
2022-12-13T17:15:05.272Z,15.38
2022-12-13T17:17:32.252Z,16.23
2022-12-13T17:19:59.041Z,15.35
2022-12-13T17:22:25.996Z,14.75
2022-12-13T17:24:52.908Z,16.45
2022-12-13T17:27:19.893Z,15.00
2022-12-13T17:29:47.754Z,15.88
2022-12-13T17:32:14.488Z,16.42
2022-12-13T17:34:41.206Z,16.65
2022-12-13T17:37:10.615Z,16.48
2022-12-13T17:39:37.863Z,15.32
2022-12-13T17:42:04.576Z,17.45
2022-12-13T17:44:31.239Z,15.82
2022-12-13T17:46:59.701Z,17.27
2022-12-13T17:49:26.762Z,17.02
2022-12-13T17:51:54.578Z,17.30
2022-12-13T17:54:25.571Z,15.55
2022-12-13T17:56:53.646Z,17.13
2022-12-13T17:59:20.515Z,17.27
2022-12-13T18:01:47.533Z,18.98
2022-12-13T18:04:14.404Z,18.90
2022-12-13T18:06:41.870Z,18.17
2022-12-13T18:09:08.865Z,20.75
2022-12-13T18:11:35.859Z,17.55
2022-12-13T18:14:05.043Z,17.17
2022-12-13T18:16:37.602Z,17.15
2022-12-13T18:19:11.954Z,17.15
2022-12-13T18:21:39.430Z,17.30
2022-12-13T18:24:07.158Z,17.67
2022-12-13T18:26:34.547Z,18.88
2022-12-13T18:29:01.961Z,18.33
2022-12-13T18:31:28.764Z,18.52
2022-12-13T18:33:55.855Z,17.63
2022-12-13T18:36:24.762Z,18.13
2022-12-13T18:38:51.680Z,19.90
2022-12-13T18:41:23.761Z,19.42
2022-12-13T18:43:56.053Z,20.40
2022-12-13T18:46:27.612Z,19.65
2022-12-13T18:48:54.338Z,19.42
2022-12-13T18:51:21.080Z,19.48
2022-12-13T18:53:47.883Z,17.95
2022-12-13T18:56:18.832Z,18.75
2022-12-13T18:58:48.341Z,19.27
2022-12-13T19:01:16.497Z,20.63
2022-12-13T19:03:45.320Z,18.83
2022-12-13T19:06:17.552Z,18.08
2022-12-13T19:08:48.325Z,19.13
2022-12-13T19:11:16.074Z,18.98
2022-12-13T19:13:42.879Z,16.90
2022-12-13T19:16:11.854Z,17.95
2022-12-13T19:18:38.898Z,19.30
2022-12-13T19:21:08.097Z,18.33
2022-12-13T19:23:35.357Z,17.55
2022-12-13T19:26:10.018Z,18.20
2022-12-13T19:28:38.383Z,18.42
2022-12-13T19:31:06.465Z,18.42
2022-12-13T19:33:33.907Z,18.20
2022-12-13T19:36:00.850Z,18.50
2022-12-13T19:38:27.558Z,19.75
2022-12-13T19:40:54.390Z,18.50
2022-12-13T19:43:21.568Z,20.45
2022-12-13T19:45:48.770Z,20.08
2022-12-13T19:48:16.079Z,20.70
2022-12-13T19:50:44.409Z,20.00
2022-12-13T19:53:11.912Z,19.38
2022-12-13T19:55:43.884Z,18.70
2022-12-13T19:58:10.723Z,18.85
2022-12-13T20:00:37.740Z,19.13
2022-12-13T20:03:04.619Z,19.15
2022-12-13T20:05:31.500Z,18.70
2022-12-13T20:07:59.504Z,18.00
2022-12-13T20:10:27.097Z,19.35
2022-12-13T20:12:54.180Z,18.98
2022-12-13T20:15:21.014Z,18.98
2022-12-13T20:17:47.914Z,19.10
2022-12-13T20:20:14.696Z,18.05
2022-12-13T20:22:41.565Z,17.77
2022-12-13T20:25:10.526Z,18.65
2022-12-13T20:27:37.576Z,18.73
2022-12-13T20:30:05.427Z,18.80
2022-12-13T20:32:32.458Z,17.45
2022-12-13T20:34:59.122Z,17.77
2022-12-13T20:37:27.676Z,25.02
2022-12-13T20:39:54.371Z,29.80
2022-12-13T20:42:22.498Z,28.25
2022-12-13T20:44:49.304Z,20.67
2022-12-13T20:47:16.254Z,20.25
2022-12-13T20:49:44.448Z,19.75
2022-12-13T20:52:15.619Z,20.38
2022-12-13T20:54:42.313Z,19.05
2022-12-13T20:57:09.085Z,18.40
2022-12-13T20:59:36.678Z,18.50
2022-12-13T21:02:03.327Z,18.13
2022-12-13T21:04:30.309Z,18.00
2022-12-13T21:06:56.987Z,18.33
2022-12-13T21:09:23.725Z,18.25
2022-12-13T21:11:50.589Z,18.88
2022-12-13T21:14:25.615Z,18.25
2022-12-13T21:16:57.643Z,17.23
2022-12-13T21:19:26.335Z,17.55
2022-12-13T21:21:54.450Z,18.30
2022-12-13T21:24:23.121Z,18.58
2022-12-13T21:26:51.325Z,16.77
2022-12-13T21:29:18.053Z,16.95
2022-12-13T21:31:48.930Z,17.90
2022-12-13T21:34:17.505Z,16.95
2022-12-13T21:36:46.148Z,19.13
2022-12-13T21:39:30.012Z,18.40
2022-12-13T21:41:57.243Z,18.05
2022-12-13T21:44:24.005Z,19.02
2022-12-13T21:49:38.073Z,20.17
2022-12-13T21:52:04.994Z,21.35
2022-12-13T21:54:31.681Z,21.17
2022-12-13T21:57:17.245Z,19.55
2022-12-13T21:59:44.020Z,19.23
2022-12-13T22:02:16.814Z,19.90
2022-12-13T22:04:46.327Z,20.35
2022-12-13T22:07:15.771Z,20.00
2022-12-13T22:09:44.515Z,20.92
2022-12-13T22:12:19.483Z,21.17
2022-12-13T22:14:46.395Z,20.58
2022-12-13T22:17:13.465Z,21.70
2022-12-13T22:19:40.207Z,22.65
2022-12-13T22:22:07.194Z,20.85
2022-12-13T22:24:34.031Z,20.92
2022-12-13T22:27:01.904Z,21.42
2022-12-13T22:29:28.599Z,19.75
2022-12-13T22:31:55.341Z,19.70
2022-12-13T22:34:22.106Z,20.63
2022-12-13T22:36:48.867Z,19.02
2022-12-13T22:39:17.811Z,19.05
2022-12-13T22:41:45.208Z,19.20
2022-12-13T22:44:12.681Z,19.92
2022-12-13T22:46:39.493Z,20.33
2022-12-13T22:49:06.260Z,19.92
2022-12-13T22:51:32.944Z,19.30
2022-12-13T22:53:59.619Z,18.67
2022-12-13T22:56:26.458Z,19.23
2022-12-13T22:58:58.049Z,19.38
2022-12-13T23:01:27.379Z,18.25
2022-12-13T23:03:54.076Z,17.95
2022-12-13T23:06:23.556Z,17.77
2022-12-13T23:08:52.434Z,18.15
2022-12-13T23:11:38.149Z,18.23
2022-12-13T23:14:07.141Z,18.52
2022-12-13T23:16:34.652Z,18.40
2022-12-13T23:19:32.295Z,19.35
2022-12-13T23:21:49.298Z,17.38
2022-12-13T23:24:15.990Z,18.27
2022-12-13T23:26:42.684Z,18.40
2022-12-13T23:29:09.883Z,18.85
2022-12-13T23:31:38.755Z,18.65
2022-12-13T23:34:05.564Z,18.13
2022-12-13T23:36:32.531Z,18.08
2022-12-13T23:39:00.030Z,18.83
2022-12-13T23:41:33.468Z,19.40
2022-12-13T23:44:01.283Z,19.52
2022-12-13T23:46:30.608Z,19.48
2022-12-13T23:49:01.047Z,20.48
2022-12-13T23:51:28.494Z,18.98
2022-12-13T23:53:55.620Z,21.70
2022-12-13T23:56:23.521Z,18.90
2022-12-13T23:58:50.801Z,19.00
